Time;durP1;ratioP1;P1;durP2;ratioP2;P2;SDS_P1;SDS_P2;PMS_P1;PMS_P2;Temp;Humidity;BMP_temperature;BMP_pressure;BME280_temperature;BME280_humidity;BME280_pressure;Samples;Min_cycle;Max_cycle;Signal;HPM_P1;HPM_P2
2022/12/24 00:01:19;;;;;;;;;;;;;;;-144.99;100.00;52664.16;4989583;28;19932;-73
2022/12/24 00:03:46;;;;;;;;;;;;;;;-144.99;100.00;52639.69;4984164;28;19950;-73
2022/12/24 00:06:15;;;;;;;;;;;;;;;-144.99;100.00;52627.47;4987338;28;20149;-73
2022/12/24 00:08:43;;;;;;;;;;;;;;;-144.99;100.00;52635.63;4996887;28;19956;-72
2022/12/24 00:11:10;;;;;;;;;;;;;;;-144.99;100.00;52670.28;4994805;28;19944;-71
2022/12/24 00:13:36;;;;;;;;;;;;;;;-144.99;100.00;52647.84;4995755;28;20019;-73
2022/12/24 00:16:03;;;;;;;;;;;;;;;-144.99;100.00;52635.63;5005181;28;20048;-71
2022/12/24 00:18:30;;;;;;;;;;;;;;;-144.99;100.00;52704.94;4993322;28;19967;-74
2022/12/24 00:20:56;;;;;;;;;;;;;;;-144.99;100.00;52660.09;4978494;28;19930;-73
2022/12/24 00:23:23;;;;;;;;;;;;;;;-144.99;100.00;52676.38;4986457;28;19952;-73
2022/12/24 00:25:51;;;;;;;;;;;;;;;-144.99;100.00;52645.81;5000427;28;19972;-73
2022/12/24 00:28:18;;;;;;;;;;;;;;;-144.99;100.00;52627.47;4993601;28;20396;-73
2022/12/24 00:30:44;;;;;;;;;;;;;;;-144.99;100.00;52668.22;4990055;28;19947;-73
2022/12/24 00:33:11;;;;;;;;;;;;;;;-144.99;100.00;52656.00;5002171;28;19946;-73
2022/12/24 00:35:38;;;;;;;;;;;;;;;-144.99;100.00;52631.53;4989414;28;19955;-73
2022/12/24 00:38:05;;;;;;;;;;;;;;;-144.99;100.00;52674.34;4990120;28;19981;-71
2022/12/24 00:40:32;;;;;;;;;;;;;;;-144.99;100.00;52670.28;5003439;23;19963;-68
2022/12/24 00:43:00;;;;;;;;;;;;;;;-144.99;100.00;52676.38;4973294;28;19977;-70
2022/12/24 00:45:26;;;;;;;;;;;;;;;-144.99;100.00;52651.94;4968526;28;20364;-70
2022/12/24 00:47:53;;;;;;;;;;;;;;;-144.99;100.00;52635.63;4966916;28;20366;-70
2022/12/24 00:50:20;;;;;;;;;;;;;;;-144.99;100.00;52643.78;4967452;28;20392;-72
2022/12/24 00:52:47;;;;;;;;;;;;;;;-144.99;100.00;52680.47;4969919;28;19976;-74
2022/12/24 00:55:13;;;;;;;;;;;;;;;-144.99;100.00;52631.53;4970694;28;19955;-74
2022/12/24 00:57:40;;;;;;;;;;;;;;;-144.99;100.00;52664.16;4966492;28;19988;-72
2022/12/24 01:00:09;;;;;;;;;;;;;;;-144.99;100.00;52662.13;4967713;28;19960;-71
2022/12/24 01:02:36;;;;;;;;;;;;;;;-144.99;100.00;52623.38;4967979;28;19946;-71
2022/12/24 01:05:11;;;;;;;;;;;;;;;-144.99;100.00;52664.16;4968585;28;20017;-68
2022/12/24 01:07:41;;;;;;;;;;;;;;;-144.99;100.00;52619.31;4968132;28;20299;-66
2022/12/24 01:10:08;;;;;;;;;;;;;;;-144.99;100.00;52611.16;4965800;28;20026;-68
2022/12/24 01:12:34;;;;;;;;;;;;;;;-144.99;100.00;52709.00;4966044;28;20034;-66
2022/12/24 01:15:01;;;;;;;;;;;;;;;-144.99;100.00;52692.69;4967283;28;19975;-68
2022/12/24 01:17:30;;;;;;;;;;;;;;;-144.99;100.00;52660.09;4966416;28;20022;-68
2022/12/24 01:19:57;;;;;;;;;;;;;;;-144.99;100.00;52651.94;4965371;28;19960;-68
2022/12/24 01:22:24;;;;;;;;;;;;;;;-144.99;100.00;52643.78;4968694;28;19948;-66
2022/12/24 01:24:50;;;;;;;;;;;;;;;-144.99;100.00;52639.69;4954055;28;20317;-66
2022/12/24 01:27:17;;;;;;;;;;;;;;;-144.99;100.00;52668.22;4967197;28;19947;-66
2022/12/24 01:29:43;;;;;;;;;;;;;;;-144.99;100.00;52639.69;4964054;28;20013;-66
2022/12/24 01:32:10;;;;;;;;;;;;;;;-144.99;100.00;52656.00;4967260;28;19952;-66
2022/12/24 01:34:38;;;;;;;;;;;;;;;-144.99;100.00;52682.50;4967070;28;20002;-66
2022/12/24 01:37:04;;;;;;;;;;;;;;;-144.99;100.00;52660.09;4967259;28;20084;-66
2022/12/24 01:39:31;;;;;;;;;;;;;;;-144.99;100.00;52656.00;4966937;28;19972;-67
2022/12/24 01:44:42;;;;;;;;;;;;;;;-144.99;100.00;52629.50;4954773;28;19973;-68
2022/12/24 01:47:11;;;;;;;;;;;;;;;-144.99;100.00;52647.84;4967082;28;20351;-67
2022/12/24 01:49:42;;;;;;;;;;;;;;;-144.99;100.00;52664.16;4966096;28;20041;-68
2022/12/24 01:52:11;;;;;;;;;;;;;;;-144.99;100.00;52635.63;4624659;28;10000344;-68
2022/12/24 01:54:40;;;;;;;;;;;;;;;-144.99;100.00;52651.94;4966136;28;19949;-67
2022/12/24 01:57:08;;;;;;;;;;;;;;;-144.99;100.00;52658.03;4961237;28;19947;-68
2022/12/24 01:59:36;;;;;;;;;;;;;;;-144.99;100.00;52676.38;4966049;28;20326;-68
2022/12/24 02:02:03;;;;;;;;;;;;;;;-144.99;100.00;52623.38;4967533;28;20310;-68
2022/12/24 02:04:33;;;;;;;;;;;;;;;-144.99;100.00;52656.00;4965153;28;19948;-63
2022/12/24 02:07:01;;;;;;;;;;;;;;;-144.99;100.00;52647.84;4968600;28;20391;-63
2022/12/24 02:09:28;;;;;;;;;;;;;;;-144.99;100.00;52678.44;4968528;28;19974;-66
2022/12/24 02:11:55;;;;;;;;;;;;;;;-144.99;100.00;52651.94;4970185;28;20363;-66
2022/12/24 02:14:21;;;;;;;;;;;;;;;-144.99;100.00;52658.03;4969231;28;19957;-69
2022/12/24 02:16:53;;;;;;;;;;;;;;;-144.99;100.00;52700.84;4969594;28;19955;-70
2022/12/24 02:19:37;;;;;;;;;;;;;;;-144.99;100.00;52615.25;4957996;28;20476;-70
2022/12/24 02:22:07;;;;;;;;;;;;;;;-144.99;100.00;52643.78;4957738;28;20366;-70
2022/12/24 02:24:47;;;;;;;;;;;;;;;-144.99;100.00;52653.97;4968906;28;19953;-71
2022/12/24 02:27:28;;;;;;;;;;;;;;;-144.99;100.00;52631.53;4969291;28;19946;-71
2022/12/24 02:30:07;;;;;;;;;;;;;;;-144.99;100.00;52590.78;4962140;28;20031;-71
2022/12/24 02:32:37;;;;;;;;;;;;;;;-144.99;100.00;52639.69;4957929;28;20000;-72
2022/12/24 02:35:05;;;;;;;;;;;;;;;-144.99;100.00;52651.94;4969195;28;20001;-71
2022/12/24 02:37:34;;;;;;;;;;;;;;;-144.99;100.00;52680.47;4969446;28;19950;-72
2022/12/24 02:40:03;;;;;;;;;;;;;;;-144.99;100.00;52668.22;4968971;28;20027;-72
2022/12/24 02:42:35;;;;;;;;;;;;;;;-144.99;100.00;52627.47;4969140;28;20007;-73
2022/12/24 02:45:02;;;;;;;;;;;;;;;-144.99;100.00;52643.78;4969063;28;20160;-68
2022/12/24 02:47:31;;;;;;;;;;;;;;;-144.99;100.00;52639.69;4969168;28;19959;-68
2022/12/24 02:50:00;;;;;;;;;;;;;;;-144.99;100.00;52611.16;4968824;28;20476;-69
2022/12/24 02:52:31;;;;;;;;;;;;;;;-144.99;100.00;52651.94;4960690;28;19947;-68
2022/12/24 02:54:59;;;;;;;;;;;;;;;-144.99;100.00;52688.63;4968647;28;20462;-68
2022/12/24 02:57:29;;;;;;;;;;;;;;;-144.99;100.00;52615.25;4968769;28;19941;-67
2022/12/24 02:59:59;;;;;;;;;;;;;;;-144.99;100.00;52656.00;4968562;28;19997;-67
2022/12/24 03:02:28;;;;;;;;;;;;;;;-144.99;100.00;52623.38;4968952;28;19995;-66
2022/12/24 03:04:59;;;;;;;;;;;;;;;-144.99;100.00;52607.09;4968907;28;20094;-66
2022/12/24 03:07:29;;;;;;;;;;;;;;;-144.99;100.00;52643.78;4969116;28;19998;-66
2022/12/24 03:10:02;;;;;;;;;;;;;;;-144.99;100.00;52625.44;4968692;28;20037;-66
2022/12/24 03:12:32;;;;;;;;;;;;;;;-144.99;100.00;52653.97;4968998;28;20050;-66
2022/12/24 03:14:59;;;;;;;;;;;;;;;-144.99;100.00;52635.63;4972113;28;20431;-66
2022/12/24 03:17:26;;;;;;;;;;;;;;;-144.99;100.00;52627.47;4972509;28;20426;-66
2022/12/24 03:19:54;;;;;;;;;;;;;;;-144.99;100.00;52639.69;4972374;28;20018;-65
2022/12/24 03:22:22;;;;;;;;;;;;;;;-144.99;100.00;52658.03;4972088;28;19954;-67
2022/12/24 03:24:48;;;;;;;;;;;;;;;-144.99;100.00;52627.47;4972051;28;20034;-66
2022/12/24 03:27:16;;;;;;;;;;;;;;;-144.99;100.00;52660.09;4972693;28;19948;-65
2022/12/24 03:29:42;;;;;;;;;;;;;;;-144.99;100.00;52676.38;4971664;28;19967;-65
2022/12/24 03:32:09;;;;;;;;;;;;;;;-144.99;100.00;52656.00;4972322;28;20324;-66
2022/12/24 03:34:36;;;;;;;;;;;;;;;-144.99;100.00;52639.69;4972309;28;20386;-66
2022/12/24 03:37:02;;;;;;;;;;;;;;;-144.99;100.00;52635.63;4972037;28;20009;-67
2022/12/24 03:39:30;;;;;;;;;;;;;;;-144.99;100.00;52639.69;4972003;28;19964;-66
2022/12/24 03:41:57;;;;;;;;;;;;;;;-144.99;100.00;52645.81;4971657;28;20032;-66
2022/12/24 03:44:23;;;;;;;;;;;;;;;-144.99;100.00;52656.00;4971983;28;20010;-67
2022/12/24 03:46:50;;;;;;;;;;;;;;;-144.99;100.00;52643.78;4972267;28;19971;-70
2022/12/24 03:49:16;;;;;;;;;;;;;;;-144.99;100.00;52647.84;4971902;28;19963;-70
2022/12/24 03:51:43;;;;;;;;;;;;;;;-144.99;100.00;52635.63;4971687;28;19950;-70
2022/12/24 03:54:09;;;;;;;;;;;;;;;-144.99;100.00;52639.69;4971668;28;19950;-70
2022/12/24 03:56:37;;;;;;;;;;;;;;;-144.99;100.00;52637.66;4972108;28;20023;-72
2022/12/24 03:59:04;;;;;;;;;;;;;;;-144.99;100.00;52631.53;4971067;28;20031;-71
2022/12/24 04:01:30;;;;;;;;;;;;;;;-144.99;100.00;52664.16;4971714;28;19956;-70
2022/12/24 04:03:57;;;;;;;;;;;;;;;-144.99;100.00;52641.72;4971844;28;20308;-70
2022/12/24 04:06:24;;;;;;;;;;;;;;;-144.99;100.00;52674.34;4971406;28;20027;-68
2022/12/24 04:08:50;;;;;;;;;;;;;;;-144.99;100.00;52653.97;4971768;28;20037;-69
2022/12/24 04:11:17;;;;;;;;;;;;;;;-144.99;100.00;52664.16;4971646;28;19956;-68
2022/12/24 04:13:45;;;;;;;;;;;;;;;-144.99;100.00;52627.47;4971587;28;20358;-69
2022/12/24 04:16:12;;;;;;;;;;;;;;;-144.99;100.00;52660.09;4971434;28;20016;-69
2022/12/24 04:18:39;;;;;;;;;;;;;;;-144.99;100.00;52611.16;4970107;28;20023;-69
2022/12/24 04:21:06;;;;;;;;;;;;;;;-144.99;100.00;52639.69;4971498;28;19980;-69
2022/12/24 04:23:33;;;;;;;;;;;;;;;-144.99;100.00;52613.19;4971331;28;19951;-66
2022/12/24 04:26:00;;;;;;;;;;;;;;;-144.99;100.00;52664.16;4970151;28;20067;-74
2022/12/24 04:28:26;;;;;;;;;;;;;;;-144.99;100.00;52653.97;4962148;28;19947;-74
2022/12/24 04:30:59;;;;;;;;;;;;;;;-144.99;100.00;52625.44;4968955;28;20539;-74
2022/12/24 04:33:25;;;;;;;;;;;;;;;-144.99;100.00;52623.38;4971220;28;20407;-74
2022/12/24 04:35:52;;;;;;;;;;;;;;;-144.99;100.00;52660.09;4971282;28;19926;-73
2022/12/24 04:38:19;;;;;;;;;;;;;;;-144.99;100.00;52664.16;4971679;28;19949;-74
2022/12/24 04:40:45;;;;;;;;;;;;;;;-144.99;100.00;52639.69;4980485;28;19950;-74
2022/12/24 04:43:12;;;;;;;;;;;;;;;-144.99;100.00;52676.38;4987486;28;19949;-75
2022/12/24 04:45:38;;;;;;;;;;;;;;;-144.99;100.00;52668.22;4971379;28;19970;-75
2022/12/24 04:48:06;;;;;;;;;;;;;;;-144.99;100.00;52672.31;4971484;28;19950;-75
2022/12/24 04:50:33;;;;;;;;;;;;;;;-144.99;100.00;52688.63;4958489;28;19956;-74
2022/12/24 04:52:59;;;;;;;;;;;;;;;-144.99;100.00;52664.16;4971305;28;20008;-74
2022/12/24 04:55:26;;;;;;;;;;;;;;;-144.99;100.00;52639.69;4959877;28;19936;-74
2022/12/24 04:57:53;;;;;;;;;;;;;;;-144.99;100.00;52651.94;4975881;28;19943;-74
2022/12/24 05:00:19;;;;;;;;;;;;;;;-144.99;100.00;52688.63;4972739;28;20061;-74
2022/12/24 05:02:46;;;;;;;;;;;;;;;-144.99;100.00;52660.09;4971248;28;20345;-74
2022/12/24 05:05:14;;;;;;;;;;;;;;;-144.99;100.00;52639.69;4970880;28;20326;-74
2022/12/24 05:07:40;;;;;;;;;;;;;;;-144.99;100.00;52627.47;4970811;28;20007;-74
2022/12/24 05:10:08;;;;;;;;;;;;;;;-144.99;100.00;52641.72;4970247;28;20243;-64
2022/12/24 05:12:34;;;;;;;;;;;;;;;-144.99;100.00;52631.53;4970480;28;20400;-64
2022/12/24 05:15:01;;;;;;;;;;;;;;;-144.99;100.00;52656.00;4970046;28;20388;-65
2022/12/24 05:17:27;;;;;;;;;;;;;;;-144.99;100.00;52639.69;4968602;28;20426;-64
2022/12/24 05:19:54;;;;;;;;;;;;;;;-144.99;100.00;52623.38;4957389;28;20401;-64
2022/12/24 05:27:59;;;;;;;;;;;;;;;-144.99;100.00;52635.63;4965191;28;19951;-64
2022/12/24 05:30:25;;;;;;;;;;;;;;;-144.99;100.00;52643.78;4964068;28;20521;-64
2022/12/24 05:32:52;;;;;;;;;;;;;;;-144.99;100.00;52647.84;4977077;28;19968;-74
2022/12/24 05:35:18;;;;;;;;;;;;;;;-144.99;100.00;52613.19;4970300;28;20392;-71
2022/12/24 05:37:46;;;;;;;;;;;;;;;-144.99;100.00;52633.59;4970310;28;20404;-71
2022/12/24 05:40:13;;;;;;;;;;;;;;;-144.99;100.00;52643.78;4969680;28;19977;-72
2022/12/24 05:42:39;;;;;;;;;;;;;;;-144.99;100.00;52664.16;4969901;28;19958;-71
2022/12/24 05:45:06;;;;;;;;;;;;;;;-144.99;100.00;52619.31;4969860;28;19996;-71
2022/12/24 05:47:33;;;;;;;;;;;;;;;-144.99;100.00;52680.47;4970545;28;19972;-71
2022/12/24 05:50:00;;;;;;;;;;;;;;;-144.99;100.00;52672.31;4969906;28;19967;-71
2022/12/24 05:52:26;;;;;;;;;;;;;;;-144.99;100.00;52647.84;4962762;28;19951;-71
2022/12/24 05:54:54;;;;;;;;;;;;;;;-144.99;100.00;52639.69;4970673;28;19952;-67
2022/12/24 05:57:21;;;;;;;;;;;;;;;-144.99;100.00;52647.84;4969250;28;20009;-68
2022/12/24 05:59:48;;;;;;;;;;;;;;;-144.99;100.00;52623.38;4969398;28;20037;-67
2022/12/24 06:02:14;;;;;;;;;;;;;;;-144.99;100.00;52668.22;4969805;28;19947;-68
2022/12/24 06:04:41;;;;;;;;;;;;;;;-144.99;100.00;52672.31;4969748;28;20025;-68
2022/12/24 06:07:07;;;;;;;;;;;;;;;-144.99;100.00;52656.00;4969707;28;20525;-67
2022/12/24 06:09:34;;;;;;;;;;;;;;;-144.99;100.00;52647.84;4969260;28;20273;-67
2022/12/24 06:12:02;;;;;;;;;;;;;;;-144.99;100.00;52660.09;4969662;28;20004;-67
2022/12/24 06:14:28;;;;;;;;;;;;;;;-144.99;100.00;52692.69;4969351;28;20118;-68
2022/12/24 06:16:55;;;;;;;;;;;;;;;-144.99;100.00;52651.94;4969812;28;20093;-67
2022/12/24 06:19:21;;;;;;;;;;;;;;;-144.99;100.00;52635.63;4968448;28;19967;-67
2022/12/24 06:21:48;;;;;;;;;;;;;;;-144.99;100.00;52668.22;4970574;28;20015;-68
2022/12/24 06:24:15;;;;;;;;;;;;;;;-144.99;100.00;52658.03;4969903;28;20046;-68
2022/12/24 06:26:41;;;;;;;;;;;;;;;-144.99;100.00;52668.22;4969354;28;19964;-68
2022/12/24 06:29:10;;;;;;;;;;;;;;;-144.99;100.00;52717.16;4957682;28;19963;-71
2022/12/24 06:31:37;;;;;;;;;;;;;;;-144.99;100.00;52645.81;4969413;28;19951;-72
2022/12/24 06:34:03;;;;;;;;;;;;;;;-144.99;100.00;52643.78;4969997;28;19942;-68
2022/12/24 06:36:30;;;;;;;;;;;;;;;-144.99;100.00;52656.00;4970453;28;20010;-67
2022/12/24 06:38:56;;;;;;;;;;;;;;;-144.99;100.00;52639.69;4969274;28;20394;-67
2022/12/24 06:41:23;;;;;;;;;;;;;;;-144.99;100.00;52607.09;4969568;28;20012;-71
2022/12/24 06:43:51;;;;;;;;;;;;;;;-144.99;100.00;52603.00;4996704;23;20425;-66
2022/12/24 06:46:19;;;;;;;;;;;;;;;-144.99;100.00;52645.81;4999741;28;19968;-66
2022/12/24 06:48:46;;;;;;;;;;;;;;;-144.99;100.00;52603.00;4992403;28;19970;-66
2022/12/24 06:51:13;;;;;;;;;;;;;;;-144.99;100.00;52619.31;4993454;28;20349;-66
2022/12/24 06:53:40;;;;;;;;;;;;;;;-144.99;100.00;52660.09;4993047;28;19953;-67
2022/12/24 06:56:08;;;;;;;;;;;;;;;-144.99;100.00;52656.00;4992945;28;20028;-65
2022/12/24 06:58:35;;;;;;;;;;;;;;;-144.99;100.00;52656.00;4992815;28;19963;-65
2022/12/24 07:01:02;;;;;;;;;;;;;;;-144.99;100.00;52672.31;4992600;28;19949;-64
2022/12/24 07:03:30;;;;;;;;;;;;;;;-144.99;100.00;52639.69;4992677;28;20034;-65
2022/12/24 07:05:57;;;;;;;;;;;;;;;-144.99;100.00;52621.34;4992665;28;19944;-65
2022/12/24 07:08:24;;;;;;;;;;;;;;;-144.99;100.00;52637.66;4993152;28;19950;-65
2022/12/24 07:10:51;;;;;;;;;;;;;;;-144.99;100.00;52651.94;4993006;28;19949;-64
2022/12/24 07:13:18;;;;;;;;;;;;;;;-144.99;100.00;52690.66;4992705;28;20012;-65
2022/12/24 07:15:45;;;;;;;;;;;;;;;-144.99;100.00;52643.78;4992786;28;19952;-68
2022/12/24 07:18:12;;;;;;;;;;;;;;;-144.99;100.00;52631.53;4992691;28;20445;-68
2022/12/24 07:20:42;;;;;;;;;;;;;;;-144.99;100.00;52643.78;4993073;28;19955;-68
2022/12/24 07:23:08;;;;;;;;;;;;;;;-144.99;100.00;52635.63;4992631;28;19966;-69
2022/12/24 07:25:35;;;;;;;;;;;;;;;-144.99;100.00;52647.84;4992869;28;20015;-68
2022/12/24 07:28:02;;;;;;;;;;;;;;;-144.99;100.00;52684.53;4992880;28;19966;-67
2022/12/24 07:30:28;;;;;;;;;;;;;;;-144.99;100.00;52664.16;4992310;28;19971;-66
2022/12/24 07:32:57;;;;;;;;;;;;;;;-144.99;100.00;52631.53;4991671;28;20500;-66
2022/12/24 07:35:23;;;;;;;;;;;;;;;-144.99;100.00;52598.94;4992597;28;20381;-66
2022/12/24 07:37:51;;;;;;;;;;;;;;;-144.99;100.00;52615.25;4992609;28;20335;-67
2022/12/24 07:40:18;;;;;;;;;;;;;;;-144.99;100.00;52639.69;4992503;28;19966;-66
2022/12/24 07:42:44;;;;;;;;;;;;;;;-144.99;100.00;52660.09;4992855;28;20401;-67
2022/12/24 07:45:11;;;;;;;;;;;;;;;-144.99;100.00;52639.69;4992232;28;20300;-67
2022/12/24 07:47:37;;;;;;;;;;;;;;;-144.99;100.00;52615.25;4992510;28;19962;-67
2022/12/24 07:50:04;;;;;;;;;;;;;;;-144.99;100.00;52639.69;4992406;28;19960;-67
2022/12/24 07:52:31;;;;;;;;;;;;;;;-144.99;100.00;52670.28;4991997;28;19945;-66
2022/12/24 07:54:59;;;;;;;;;;;;;;;-144.99;100.00;52631.53;4992042;28;19946;-67
2022/12/24 07:57:26;;;;;;;;;;;;;;;-144.99;100.00;52668.22;4992619;28;19937;-72
2022/12/24 07:59:52;;;;;;;;;;;;;;;-144.99;100.00;52656.00;4991818;28;19966;-71
2022/12/24 08:02:19;;;;;;;;;;;;;;;-144.99;100.00;52635.63;4992236;28;20384;-72
2022/12/24 08:04:45;;;;;;;;;;;;;;;-144.99;100.00;52656.00;4992460;28;19958;-70
2022/12/24 08:07:12;;;;;;;;;;;;;;;-144.99;100.00;52660.09;4992135;28;19971;-70
2022/12/24 08:09:39;;;;;;;;;;;;;;;-144.99;100.00;52605.03;4991844;28;19971;-71
2022/12/24 08:12:07;;;;;;;;;;;;;;;-144.99;100.00;52623.38;4992140;28;20046;-70
2022/12/24 08:14:33;;;;;;;;;;;;;;;-144.99;100.00;52700.84;4991997;28;19953;-71
2022/12/24 08:17:00;;;;;;;;;;;;;;;-144.99;100.00;52635.63;4993099;28;20374;-71
2022/12/24 08:19:27;;;;;;;;;;;;;;;-144.99;100.00;52637.66;4991821;28;19971;-70
2022/12/24 08:21:53;;;;;;;;;;;;;;;-144.99;100.00;52643.78;4992039;28;19947;-71
2022/12/24 08:24:20;;;;;;;;;;;;;;;-144.99;100.00;52631.53;4992028;28;20375;-72
2022/12/24 08:26:46;;;;;;;;;;;;;;;-144.99;100.00;52651.94;4992236;28;19974;-76
2022/12/24 08:29:17;;;;;;;;;;;;;;;-144.99;100.00;52676.38;4991653;28;20022;-72
2022/12/24 08:31:44;;;;;;;;;;;;;;;-144.99;100.00;52625.44;4992618;28;20291;-71
2022/12/24 08:34:11;;;;;;;;;;;;;;;-144.99;100.00;52631.53;4992071;28;20297;-72
2022/12/24 08:36:38;;;;;;;;;;;;;;;-144.99;100.00;52676.38;4992447;28;19947;-70
2022/12/24 08:39:04;;;;;;;;;;;;;;;-144.99;100.00;52621.34;4991978;28;20452;-73
2022/12/24 08:41:31;;;;;;;;;;;;;;;-144.99;100.00;52660.09;4992055;28;19945;-70
2022/12/24 08:43:58;;;;;;;;;;;;;;;-144.99;100.00;52643.78;4991875;28;20177;-76
2022/12/24 08:46:26;;;;;;;;;;;;;;;-144.99;100.00;52621.34;4992875;28;19947;-76
2022/12/24 08:48:53;;;;;;;;;;;;;;;-144.99;100.00;52645.81;4991038;28;20017;-73
2022/12/24 08:51:19;;;;;;;;;;;;;;;-144.99;100.00;52660.09;4992357;28;20022;-75
2022/12/24 08:53:46;;;;;;;;;;;;;;;-144.99;100.00;52647.84;4991154;28;19952;-75
2022/12/24 08:56:13;;;;;;;;;;;;;;;-144.99;100.00;52660.09;4992097;28;19951;-77
2022/12/24 08:58:40;;;;;;;;;;;;;;;-144.99;100.00;52647.84;4990995;28;19969;-75
2022/12/24 09:01:10;;;;;;;;;;;;;;;-144.99;100.00;52631.53;4991808;28;19948;-76
2022/12/24 09:03:38;;;;;;;;;;;;;;;-144.99;100.00;52639.69;4991820;28;19957;-76
2022/12/24 09:06:05;;;;;;;;;;;;;;;-144.99;100.00;52613.19;4991884;28;19947;-77
2022/12/24 09:08:32;;;;;;;;;;;;;;;-144.99;100.00;52615.25;4991405;28;19963;-73
2022/12/24 09:11:02;;;;;;;;;;;;;;;-144.99;100.00;52639.69;4990770;28;20515;-72
2022/12/24 09:13:28;;;;;;;;;;;;;;;-144.99;100.00;52647.84;4979225;28;19965;-73
2022/12/24 09:15:55;;;;;;;;;;;;;;;-144.99;100.00;52676.38;4973153;28;20006;-73
2022/12/24 09:18:22;;;;;;;;;;;;;;;-144.99;100.00;52627.47;4991618;28;19954;-73
2022/12/24 09:20:50;;;;;;;;;;;;;;;-144.99;100.00;52639.69;4992126;28;19955;-72
2022/12/24 09:23:17;;;;;;;;;;;;;;;-144.99;100.00;52639.69;4996480;28;19951;-73
2022/12/24 09:25:44;;;;;;;;;;;;;;;-144.99;100.00;52631.53;4996276;28;20455;-73
2022/12/24 09:28:10;;;;;;;;;;;;;;;-144.99;100.00;52647.84;4995433;28;19962;-73
2022/12/24 09:30:37;;;;;;;;;;;;;;;-144.99;100.00;52643.78;4995599;28;20011;-74
2022/12/24 09:33:04;;;;;;;;;;;;;;;-144.99;100.00;52627.47;4996379;28;20050;-73
2022/12/24 09:35:31;;;;;;;;;;;;;;;-144.99;100.00;52647.84;4997808;28;19953;-73
2022/12/24 09:38:02;;;;;;;;;;;;;;;-144.99;100.00;52629.50;4996942;28;19954;-73
2022/12/24 09:40:33;;;;;;;;;;;;;;;-144.99;100.00;52656.00;4998053;28;19972;-72
2022/12/24 09:43:00;;;;;;;;;;;;;;;-144.99;100.00;52643.78;4998139;28;20059;-73
2022/12/24 09:45:30;;;;;;;;;;;;;;;-144.99;100.00;52598.94;4996894;28;20263;-72
2022/12/24 09:47:58;;;;;;;;;;;;;;;-144.99;100.00;52627.47;4995671;28;19965;-73
2022/12/24 09:50:28;;;;;;;;;;;;;;;-144.99;100.00;52651.94;4995263;28;19983;-74
2022/12/24 09:52:55;;;;;;;;;;;;;;;-144.99;100.00;52603.00;4995709;28;20007;-73
2022/12/24 09:55:26;;;;;;;;;;;;;;;-144.99;100.00;52656.00;4999216;28;19946;-72
2022/12/24 09:57:54;;;;;;;;;;;;;;;-144.99;100.00;52643.78;4998479;28;19943;-72
2022/12/24 10:00:23;;;;;;;;;;;;;;;-144.99;100.00;52603.00;4999397;28;19976;-72
2022/12/24 10:02:50;;;;;;;;;;;;;;;-144.99;100.00;52615.25;5000926;28;19953;-73
2022/12/24 10:05:17;;;;;;;;;;;;;;;-144.99;100.00;52607.09;4999109;28;19949;-72
2022/12/24 10:07:48;;;;;;;;;;;;;;;-144.99;100.00;52651.94;4999439;28;19983;-72
2022/12/24 10:10:21;;;;;;;;;;;;;;;-144.99;100.00;52613.19;4998735;28;19966;-72
2022/12/24 10:12:54;;;;;;;;;;;;;;;-144.99;100.00;52586.69;4999291;28;19949;-72
2022/12/24 10:15:27;;;;;;;;;;;;;;;-144.99;100.00;52633.59;4999923;28;19956;-73
2022/12/24 10:18:02;;;;;;;;;;;;;;;-144.99;100.00;52643.78;5000351;28;19958;-73
2022/12/24 10:20:39;;;;;;;;;;;;;;;-144.99;100.00;52619.31;4998796;28;19959;-74
2022/12/24 10:23:09;;;;;;;;;;;;;;;-144.99;100.00;52627.47;4986508;28;20094;-73
2022/12/24 10:25:38;;;;;;;;;;;;;;;-144.99;100.00;52668.22;4998587;28;19944;-73
2022/12/24 10:28:13;;;;;;;;;;;;;;;-144.99;100.00;52590.78;4999333;28;20013;-73
2022/12/24 10:30:40;;;;;;;;;;;;;;;-144.99;100.00;52619.31;5000064;28;19947;-74
2022/12/24 10:33:13;;;;;;;;;;;;;;;-144.99;100.00;52635.63;4998857;28;20419;-72
2022/12/24 10:35:44;;;;;;;;;;;;;;;-144.99;100.00;52639.69;4999005;28;19991;-73
2022/12/24 10:38:10;;;;;;;;;;;;;;;-144.99;100.00;52635.63;4998823;28;19974;-73
2022/12/24 10:40:40;;;;;;;;;;;;;;;-144.99;100.00;52617.28;4996454;28;19944;-74
2022/12/24 10:43:14;;;;;;;;;;;;;;;-144.99;100.00;52615.25;4996614;28;19965;-74
2022/12/24 10:45:42;;;;;;;;;;;;;;;-144.99;100.00;52643.78;4985216;28;19946;-74
2022/12/24 10:48:12;;;;;;;;;;;;;;;-144.99;100.00;52653.97;4998311;28;19973;-74
2022/12/24 10:50:41;;;;;;;;;;;;;;;-144.99;100.00;52647.84;4998959;28;20003;-75
2022/12/24 10:53:14;;;;;;;;;;;;;;;-144.99;100.00;52590.78;4997661;28;19981;-74
2022/12/24 10:55:41;;;;;;;;;;;;;;;-144.99;100.00;52635.63;4988612;28;20058;-73
2022/12/24 10:58:15;;;;;;;;;;;;;;;-144.99;100.00;52621.34;5001065;28;20014;-73
2022/12/24 11:00:42;;;;;;;;;;;;;;;-144.99;100.00;52623.38;5000830;28;19996;-74
2022/12/24 11:03:21;;;;;;;;;;;;;;;-144.99;100.00;52660.09;4999798;28;20034;-73
2022/12/24 11:05:58;;;;;;;;;;;;;;;-144.99;100.00;52609.13;4997974;28;20362;-74
2022/12/24 11:08:25;;;;;;;;;;;;;;;-144.99;100.00;52676.38;4998437;28;19963;-73
2022/12/24 11:10:55;;;;;;;;;;;;;;;-144.99;100.00;52623.38;4996822;28;19973;-74
2022/12/24 11:13:25;;;;;;;;;;;;;;;-144.99;100.00;52643.78;4998261;28;20349;-73
2022/12/24 11:15:59;;;;;;;;;;;;;;;-144.99;100.00;52598.94;4998667;28;20050;-73
2022/12/24 11:18:26;;;;;;;;;;;;;;;-144.99;100.00;52635.63;4998518;28;19940;-73
2022/12/24 11:20:53;;;;;;;;;;;;;;;-144.99;100.00;52647.84;4999555;28;19960;-72
2022/12/24 11:23:19;;;;;;;;;;;;;;;-144.99;100.00;52611.16;4998947;28;19982;-73
2022/12/24 11:25:48;;;;;;;;;;;;;;;-144.99;100.00;52615.25;4999116;28;19946;-74
2022/12/24 11:28:20;;;;;;;;;;;;;;;-144.99;100.00;52651.94;4998974;28;19969;-73
2022/12/24 11:30:56;;;;;;;;;;;;;;;-144.99;100.00;52619.31;4994618;28;20203;-73
2022/12/24 11:33:23;;;;;;;;;;;;;;;-144.99;100.00;52647.84;4989384;28;19946;-73
2022/12/24 11:35:53;;;;;;;;;;;;;;;-144.99;100.00;52611.16;4992665;28;19955;-74
2022/12/24 11:38:21;;;;;;;;;;;;;;;-144.99;100.00;52639.69;4993614;28;20004;-76
2022/12/24 11:40:49;;;;;;;;;;;;;;;-144.99;100.00;52627.47;4993126;28;19947;-77
2022/12/24 11:43:17;;;;;;;;;;;;;;;-144.99;100.00;52615.25;4993484;28;19956;-75
2022/12/24 11:45:49;;;;;;;;;;;;;;;-144.99;100.00;52631.53;4993205;28;19949;-76
2022/12/24 11:48:27;;;;;;;;;;;;;;;-144.99;100.00;52627.47;4992824;28;19965;-75
2022/12/24 11:50:58;;;;;;;;;;;;;;;-144.99;100.00;52611.16;4993046;28;20383;-75
2022/12/24 11:53:27;;;;;;;;;;;;;;;-144.99;100.00;52635.63;4992615;28;20290;-74
2022/12/24 11:55:56;;;;;;;;;;;;;;;-144.99;100.00;52627.47;4992930;28;19992;-76
2022/12/24 11:58:26;;;;;;;;;;;;;;;-144.99;100.00;52586.69;4991898;28;19947;-73
2022/12/24 12:00:58;;;;;;;;;;;;;;;-144.99;100.00;52623.38;4992708;28;20035;-75
2022/12/24 12:03:30;;;;;;;;;;;;;;;-144.99;100.00;52643.78;4993088;28;20055;-75
2022/12/24 12:05:59;;;;;;;;;;;;;;;-144.99;100.00;52631.53;4993551;28;20407;-76
2022/12/24 12:08:27;;;;;;;;;;;;;;;-144.99;100.00;52611.16;4993149;28;19985;-75
2022/12/24 12:10:55;;;;;;;;;;;;;;;-144.99;100.00;52635.63;4993255;28;19998;-75
2022/12/24 12:13:24;;;;;;;;;;;;;;;-144.99;100.00;52592.81;4992493;28;19949;-75
2022/12/24 12:15:51;;;;;;;;;;;;;;;-144.99;100.00;52603.00;4993081;28;19951;-75
2022/12/24 12:18:21;;;;;;;;;;;;;;;-144.99;100.00;52582.63;4993372;28;20028;-75
2022/12/24 12:20:52;;;;;;;;;;;;;;;-144.99;100.00;52611.16;4993069;28;19947;-74
2022/12/24 12:23:23;;;;;;;;;;;;;;;-144.99;100.00;52619.31;4992763;28;19952;-77
2022/12/24 12:25:51;;;;;;;;;;;;;;;-144.99;100.00;52629.50;4992210;28;19947;-75
2022/12/24 12:28:21;;;;;;;;;;;;;;;-144.99;100.00;52613.19;4992198;28;19968;-73
2022/12/24 12:30:54;;;;;;;;;;;;;;;-144.99;100.00;52619.31;4992039;28;20060;-74